sensor_id;sensor_type;location;lat;lon;timestamp;P1;durP1;ratioP1;P2;durP2;ratioP2
177;SDS011;77;48.792;9.032;2022-11-15T00:01:35;7.20;;;3.90;;
177;SDS011;77;48.792;9.032;2022-11-15T00:04:00;8.33;;;4.00;;
177;SDS011;77;48.792;9.032;2022-11-15T00:06:26;6.17;;;3.57;;
177;SDS011;77;48.792;9.032;2022-11-15T00:08:51;5.80;;;3.70;;
177;SDS011;77;48.792;9.032;2022-11-15T00:11:17;5.93;;;3.53;;
177;SDS011;77;48.792;9.032;2022-11-15T00:13:43;5.40;;;3.80;;
177;SDS011;77;48.792;9.032;2022-11-15T00:16:08;6.47;;;3.70;;
177;SDS011;77;48.792;9.032;2022-11-15T00:18:33;6.07;;;3.80;;
177;SDS011;77;48.792;9.032;2022-11-15T00:21:02;8.53;;;3.90;;
177;SDS011;77;48.792;9.032;2022-11-15T00:23:28;8.27;;;3.40;;
177;SDS011;77;48.792;9.032;2022-11-15T00:25:56;10.20;;;3.60;;
177;SDS011;77;48.792;9.032;2022-11-15T00:28:23;5.33;;;3.63;;
177;SDS011;77;48.792;9.032;2022-11-15T00:30:48;5.97;;;3.63;;
177;SDS011;77;48.792;9.032;2022-11-15T00:33:13;7.00;;;3.73;;
177;SDS011;77;48.792;9.032;2022-11-15T00:35:38;6.07;;;3.63;;
177;SDS011;77;48.792;9.032;2022-11-15T00:38:04;6.80;;;4.10;;
177;SDS011;77;48.792;9.032;2022-11-15T00:40:29;5.00;;;3.40;;
177;SDS011;77;48.792;9.032;2022-11-15T00:42:54;6.33;;;3.60;;
177;SDS011;77;48.792;9.032;2022-11-15T00:45:21;8.40;;;3.80;;
177;SDS011;77;48.792;9.032;2022-11-15T00:47:46;6.20;;;3.60;;
177;SDS011;77;48.792;9.032;2022-11-15T00:50:11;5.63;;;3.47;;
177;SDS011;77;48.792;9.032;2022-11-15T00:52:37;5.77;;;3.60;;
177;SDS011;77;48.792;9.032;2022-11-15T00:55:02;7.40;;;3.67;;
177;SDS011;77;48.792;9.032;2022-11-15T00:57:27;5.37;;;3.40;;
177;SDS011;77;48.792;9.032;2022-11-15T00:59:52;6.50;;;3.60;;
177;SDS011;77;48.792;9.032;2022-11-15T01:02:19;5.70;;;3.70;;
177;SDS011;77;48.792;9.032;2022-11-15T01:04:44;5.83;;;3.40;;
177;SDS011;77;48.792;9.032;2022-11-15T01:07:09;6.20;;;3.63;;
177;SDS011;77;48.792;9.032;2022-11-15T01:09:35;5.87;;;3.13;;
177;SDS011;77;48.792;9.032;2022-11-15T01:12:00;5.03;;;3.20;;
177;SDS011;77;48.792;9.032;2022-11-15T01:14:25;5.80;;;3.50;;
177;SDS011;77;48.792;9.032;2022-11-15T01:16:50;6.27;;;3.50;;
177;SDS011;77;48.792;9.032;2022-11-15T01:19:17;7.90;;;3.47;;
177;SDS011;77;48.792;9.032;2022-11-15T01:21:42;6.30;;;3.47;;
177;SDS011;77;48.792;9.032;2022-11-15T01:24:07;5.67;;;3.67;;
177;SDS011;77;48.792;9.032;2022-11-15T01:26:36;6.30;;;3.33;;
177;SDS011;77;48.792;9.032;2022-11-15T01:29:02;5.97;;;3.57;;
177;SDS011;77;48.792;9.032;2022-11-15T01:31:27;7.37;;;3.50;;
177;SDS011;77;48.792;9.032;2022-11-15T01:33:52;5.83;;;3.80;;
177;SDS011;77;48.792;9.032;2022-11-15T01:36:19;5.87;;;3.90;;
177;SDS011;77;48.792;9.032;2022-11-15T01:38:45;6.50;;;3.83;;
177;SDS011;77;48.792;9.032;2022-11-15T01:41:14;5.40;;;3.63;;
177;SDS011;77;48.792;9.032;2022-11-15T01:43:39;5.67;;;3.50;;
177;SDS011;77;48.792;9.032;2022-11-15T01:46:06;6.67;;;4.27;;
177;SDS011;77;48.792;9.032;2022-11-15T01:48:34;6.43;;;3.77;;
177;SDS011;77;48.792;9.032;2022-11-15T01:50:59;8.30;;;4.00;;
177;SDS011;77;48.792;9.032;2022-11-15T01:53:27;6.23;;;3.90;;
177;SDS011;77;48.792;9.032;2022-11-15T01:55:53;8.07;;;4.07;;
177;SDS011;77;48.792;9.032;2022-11-15T01:58:18;5.30;;;3.60;;
177;SDS011;77;48.792;9.032;2022-11-15T02:00:44;6.73;;;3.70;;
177;SDS011;77;48.792;9.032;2022-11-15T02:03:09;7.20;;;3.93;;
177;SDS011;77;48.792;9.032;2022-11-15T02:05:34;5.73;;;3.73;;
177;SDS011;77;48.792;9.032;2022-11-15T02:08:01;6.63;;;3.93;;
177;SDS011;77;48.792;9.032;2022-11-15T02:10:28;6.80;;;4.13;;
177;SDS011;77;48.792;9.032;2022-11-15T02:12:53;7.93;;;4.00;;
177;SDS011;77;48.792;9.032;2022-11-15T02:15:19;6.70;;;4.40;;
177;SDS011;77;48.792;9.032;2022-11-15T02:17:51;8.23;;;4.13;;
177;SDS011;77;48.792;9.032;2022-11-15T02:20:27;8.23;;;4.17;;
177;SDS011;77;48.792;9.032;2022-11-15T02:23:04;6.83;;;4.13;;
177;SDS011;77;48.792;9.032;2022-11-15T02:25:39;6.73;;;4.33;;
177;SDS011;77;48.792;9.032;2022-11-15T02:28:28;6.00;;;3.80;;
177;SDS011;77;48.792;9.032;2022-11-15T02:30:56;7.27;;;3.80;;
177;SDS011;77;48.792;9.032;2022-11-15T02:33:26;7.30;;;4.07;;
177;SDS011;77;48.792;9.032;2022-11-15T02:35:57;6.10;;;3.93;;
177;SDS011;77;48.792;9.032;2022-11-15T02:38:25;6.80;;;4.10;;
177;SDS011;77;48.792;9.032;2022-11-15T02:40:53;4.93;;;3.60;;
177;SDS011;77;48.792;9.032;2022-11-15T02:43:22;7.70;;;4.03;;
177;SDS011;77;48.792;9.032;2022-11-15T02:45:50;10.00;;;4.00;;
177;SDS011;77;48.792;9.032;2022-11-15T02:48:18;9.20;;;3.83;;
177;SDS011;77;48.792;9.032;2022-11-15T02:50:44;8.80;;;3.83;;
177;SDS011;77;48.792;9.032;2022-11-15T02:53:10;4.82;;;3.58;;
177;SDS011;77;48.792;9.032;2022-11-15T02:55:36;6.93;;;4.20;;
177;SDS011;77;48.792;9.032;2022-11-15T02:58:09;8.60;;;3.80;;
177;SDS011;77;48.792;9.032;2022-11-15T03:00:35;8.80;;;3.80;;
177;SDS011;77;48.792;9.032;2022-11-15T03:06:03;5.70;;;3.50;;
177;SDS011;77;48.792;9.032;2022-11-15T03:08:32;7.10;;;3.83;;
177;SDS011;77;48.792;9.032;2022-11-15T03:11:03;7.40;;;3.80;;
177;SDS011;77;48.792;9.032;2022-11-15T03:13:31;9.60;;;4.03;;
177;SDS011;77;48.792;9.032;2022-11-15T03:16:01;5.93;;;3.43;;
177;SDS011;77;48.792;9.032;2022-11-15T03:18:28;5.57;;;3.40;;
177;SDS011;77;48.792;9.032;2022-11-15T03:20:55;6.10;;;3.60;;
177;SDS011;77;48.792;9.032;2022-11-15T03:23:23;8.37;;;3.70;;
177;SDS011;77;48.792;9.032;2022-11-15T03:25:50;6.23;;;3.70;;
177;SDS011;77;48.792;9.032;2022-11-15T03:28:18;5.27;;;3.60;;
177;SDS011;77;48.792;9.032;2022-11-15T03:30:44;7.60;;;4.07;;
177;SDS011;77;48.792;9.032;2022-11-15T03:33:10;8.13;;;4.00;;
177;SDS011;77;48.792;9.032;2022-11-15T03:35:37;5.70;;;3.57;;
177;SDS011;77;48.792;9.032;2022-11-15T03:38:05;4.90;;;3.30;;
177;SDS011;77;48.792;9.032;2022-11-15T03:40:35;6.20;;;3.50;;
177;SDS011;77;48.792;9.032;2022-11-15T03:43:03;5.30;;;3.60;;
177;SDS011;77;48.792;9.032;2022-11-15T03:45:31;5.50;;;3.43;;
177;SDS011;77;48.792;9.032;2022-11-15T03:47:58;4.27;;;2.97;;
177;SDS011;77;48.792;9.032;2022-11-15T03:50:24;7.03;;;3.50;;
177;SDS011;77;48.792;9.032;2022-11-15T03:52:50;6.70;;;3.50;;
177;SDS011;77;48.792;9.032;2022-11-15T03:55:16;6.53;;;3.60;;
177;SDS011;77;48.792;9.032;2022-11-15T03:57:43;7.07;;;3.30;;
177;SDS011;77;48.792;9.032;2022-11-15T04:00:09;7.57;;;3.40;;
177;SDS011;77;48.792;9.032;2022-11-15T04:02:35;4.70;;;3.40;;
177;SDS011;77;48.792;9.032;2022-11-15T04:05:00;5.77;;;3.50;;
177;SDS011;77;48.792;9.032;2022-11-15T04:07:25;6.70;;;3.50;;
177;SDS011;77;48.792;9.032;2022-11-15T04:09:50;5.30;;;3.47;;
177;SDS011;77;48.792;9.032;2022-11-15T04:12:15;5.87;;;3.27;;
177;SDS011;77;48.792;9.032;2022-11-15T04:14:42;5.80;;;3.47;;
177;SDS011;77;48.792;9.032;2022-11-15T04:17:07;6.63;;;3.30;;
177;SDS011;77;48.792;9.032;2022-11-15T04:19:32;5.70;;;3.60;;
177;SDS011;77;48.792;9.032;2022-11-15T04:21:58;4.60;;;3.17;;
177;SDS011;77;48.792;9.032;2022-11-15T04:24:23;7.50;;;3.37;;
177;SDS011;77;48.792;9.032;2022-11-15T04:26:48;5.57;;;3.30;;
177;SDS011;77;48.792;9.032;2022-11-15T04:29:13;9.10;;;3.70;;
177;SDS011;77;48.792;9.032;2022-11-15T04:31:40;5.57;;;3.37;;
177;SDS011;77;48.792;9.032;2022-11-15T04:34:05;8.37;;;3.20;;
177;SDS011;77;48.792;9.032;2022-11-15T04:36:30;5.53;;;3.23;;
177;SDS011;77;48.792;9.032;2022-11-15T04:38:56;4.70;;;3.30;;
177;SDS011;77;48.792;9.032;2022-11-15T04:41:21;6.97;;;3.60;;
177;SDS011;77;48.792;9.032;2022-11-15T04:43:46;4.80;;;3.10;;
177;SDS011;77;48.792;9.032;2022-11-15T04:46:11;5.50;;;3.30;;
177;SDS011;77;48.792;9.032;2022-11-15T04:48:38;5.80;;;3.50;;
177;SDS011;77;48.792;9.032;2022-11-15T04:51:03;6.03;;;3.40;;
177;SDS011;77;48.792;9.032;2022-11-15T04:53:28;5.30;;;3.60;;
177;SDS011;77;48.792;9.032;2022-11-15T04:55:53;9.00;;;3.70;;
177;SDS011;77;48.792;9.032;2022-11-15T04:58:19;5.00;;;3.50;;
177;SDS011;77;48.792;9.032;2022-11-15T05:00:44;5.50;;;3.57;;
177;SDS011;77;48.792;9.032;2022-11-15T05:03:09;6.27;;;3.40;;
177;SDS011;77;48.792;9.032;2022-11-15T05:05:36;5.57;;;3.50;;
177;SDS011;77;48.792;9.032;2022-11-15T05:08:01;5.00;;;3.30;;
177;SDS011;77;48.792;9.032;2022-11-15T05:10:27;4.87;;;3.40;;
177;SDS011;77;48.792;9.032;2022-11-15T05:12:52;6.73;;;3.60;;
177;SDS011;77;48.792;9.032;2022-11-15T05:15:17;4.40;;;3.20;;
177;SDS011;77;48.792;9.032;2022-11-15T05:17:42;5.57;;;3.50;;
177;SDS011;77;48.792;9.032;2022-11-15T05:20:08;5.63;;;3.47;;
177;SDS011;77;48.792;9.032;2022-11-15T05:22:35;7.80;;;3.60;;
177;SDS011;77;48.792;9.032;2022-11-15T05:25:00;5.07;;;3.43;;
177;SDS011;77;48.792;9.032;2022-11-15T05:27:25;5.60;;;3.50;;
177;SDS011;77;48.792;9.032;2022-11-15T05:29:50;4.83;;;3.30;;
177;SDS011;77;48.792;9.032;2022-11-15T05:32:15;5.90;;;3.17;;
177;SDS011;77;48.792;9.032;2022-11-15T05:34:41;6.00;;;3.30;;
177;SDS011;77;48.792;9.032;2022-11-15T05:37:07;5.60;;;3.40;;
177;SDS011;77;48.792;9.032;2022-11-15T05:39:33;5.17;;;3.40;;
177;SDS011;77;48.792;9.032;2022-11-15T05:42:00;8.10;;;3.60;;
177;SDS011;77;48.792;9.032;2022-11-15T05:44:26;8.83;;;3.60;;
177;SDS011;77;48.792;9.032;2022-11-15T05:46:51;6.50;;;3.63;;
177;SDS011;77;48.792;9.032;2022-11-15T05:49:18;5.00;;;3.50;;
177;SDS011;77;48.792;9.032;2022-11-15T05:51:44;5.50;;;3.60;;
177;SDS011;77;48.792;9.032;2022-11-15T05:54:12;5.17;;;3.37;;
177;SDS011;77;48.792;9.032;2022-11-15T05:56:38;5.67;;;3.67;;
177;SDS011;77;48.792;9.032;2022-11-15T05:59:04;5.20;;;3.43;;
177;SDS011;77;48.792;9.032;2022-11-15T06:01:30;6.13;;;3.67;;
177;SDS011;77;48.792;9.032;2022-11-15T06:03:55;6.77;;;3.63;;
177;SDS011;77;48.792;9.032;2022-11-15T06:06:20;8.27;;;3.80;;
177;SDS011;77;48.792;9.032;2022-11-15T06:08:46;6.57;;;3.60;;
177;SDS011;77;48.792;9.032;2022-11-15T06:11:11;5.50;;;3.80;;
177;SDS011;77;48.792;9.032;2022-11-15T06:13:37;7.07;;;3.70;;
177;SDS011;77;48.792;9.032;2022-11-15T06:16:03;9.70;;;4.00;;
177;SDS011;77;48.792;9.032;2022-11-15T06:18:31;6.00;;;3.70;;
177;SDS011;77;48.792;9.032;2022-11-15T06:20:58;5.20;;;3.33;;
177;SDS011;77;48.792;9.032;2022-11-15T06:23:23;4.83;;;3.30;;
177;SDS011;77;48.792;9.032;2022-11-15T06:25:48;5.67;;;3.50;;
177;SDS011;77;48.792;9.032;2022-11-15T06:28:13;5.97;;;3.80;;
177;SDS011;77;48.792;9.032;2022-11-15T06:30:40;5.33;;;3.50;;
177;SDS011;77;48.792;9.032;2022-11-15T06:33:05;5.80;;;3.50;;
177;SDS011;77;48.792;9.032;2022-11-15T06:35:32;7.30;;;3.57;;
177;SDS011;77;48.792;9.032;2022-11-15T06:38:01;5.90;;;3.30;;
177;SDS011;77;48.792;9.032;2022-11-15T06:40:26;4.97;;;3.60;;
177;SDS011;77;48.792;9.032;2022-11-15T06:42:56;6.77;;;3.60;;
177;SDS011;77;48.792;9.032;2022-11-15T06:45:21;5.90;;;3.40;;
177;SDS011;77;48.792;9.032;2022-11-15T06:47:48;6.23;;;3.30;;
177;SDS011;77;48.792;9.032;2022-11-15T06:50:13;7.97;;;3.40;;
177;SDS011;77;48.792;9.032;2022-11-15T06:52:39;6.20;;;3.77;;
177;SDS011;77;48.792;9.032;2022-11-15T06:55:04;6.03;;;3.80;;
177;SDS011;77;48.792;9.032;2022-11-15T06:57:30;9.90;;;3.60;;
177;SDS011;77;48.792;9.032;2022-11-15T06:59:55;7.13;;;3.43;;
177;SDS011;77;48.792;9.032;2022-11-15T07:02:20;5.80;;;3.30;;
177;SDS011;77;48.792;9.032;2022-11-15T07:04:47;6.77;;;3.27;;
177;SDS011;77;48.792;9.032;2022-11-15T07:07:12;5.80;;;3.47;;
177;SDS011;77;48.792;9.032;2022-11-15T07:09:37;5.00;;;3.20;;
177;SDS011;77;48.792;9.032;2022-11-15T07:12:03;4.70;;;3.30;;
177;SDS011;77;48.792;9.032;2022-11-15T07:14:28;6.07;;;3.43;;
177;SDS011;77;48.792;9.032;2022-11-15T07:16:53;7.50;;;3.07;;
177;SDS011;77;48.792;9.032;2022-11-15T07:19:18;8.47;;;3.43;;
177;SDS011;77;48.792;9.032;2022-11-15T07:21:45;6.37;;;3.00;;
177;SDS011;77;48.792;9.032;2022-11-15T07:24:10;4.77;;;3.20;;
177;SDS011;77;48.792;9.032;2022-11-15T07:26:35;6.23;;;3.17;;
177;SDS011;77;48.792;9.032;2022-11-15T07:29:01;6.40;;;3.17;;
177;SDS011;77;48.792;9.032;2022-11-15T07:31:26;5.40;;;3.10;;
177;SDS011;77;48.792;9.032;2022-11-15T07:33:51;5.13;;;3.30;;
177;SDS011;77;48.792;9.032;2022-11-15T07:36:16;3.43;;;2.77;;
177;SDS011;77;48.792;9.032;2022-11-15T07:38:43;5.10;;;3.00;;
177;SDS011;77;48.792;9.032;2022-11-15T07:41:08;4.83;;;3.10;;
177;SDS011;77;48.792;9.032;2022-11-15T07:43:34;4.50;;;2.90;;
177;SDS011;77;48.792;9.032;2022-11-15T07:46:03;6.10;;;3.17;;
177;SDS011;77;48.792;9.032;2022-11-15T07:48:29;4.93;;;3.30;;
177;SDS011;77;48.792;9.032;2022-11-15T07:50:54;4.07;;;2.90;;
177;SDS011;77;48.792;9.032;2022-11-15T07:53:19;5.63;;;2.80;;
177;SDS011;77;48.792;9.032;2022-11-15T07:55:46;5.93;;;3.30;;
177;SDS011;77;48.792;9.032;2022-11-15T07:58:11;7.43;;;2.97;;
177;SDS011;77;48.792;9.032;2022-11-15T08:00:37;4.87;;;3.00;;
177;SDS011;77;48.792;9.032;2022-11-15T08:03:03;5.20;;;2.80;;
177;SDS011;77;48.792;9.032;2022-11-15T08:05:28;8.20;;;2.90;;
177;SDS011;77;48.792;9.032;2022-11-15T08:07:54;5.00;;;2.80;;
177;SDS011;77;48.792;9.032;2022-11-15T08:10:19;4.43;;;2.67;;
177;SDS011;77;48.792;9.032;2022-11-15T08:12:46;5.67;;;2.80;;
177;SDS011;77;48.792;9.032;2022-11-15T08:15:11;5.07;;;3.10;;
177;SDS011;77;48.792;9.032;2022-11-15T08:17:36;3.57;;;2.67;;
177;SDS011;77;48.792;9.032;2022-11-15T08:20:02;4.80;;;3.10;;
177;SDS011;77;48.792;9.032;2022-11-15T08:22:27;4.23;;;2.83;;
177;SDS011;77;48.792;9.032;2022-11-15T08:24:52;5.80;;;3.17;;
177;SDS011;77;48.792;9.032;2022-11-15T08:27:17;5.67;;;3.37;;
177;SDS011;77;48.792;9.032;2022-11-15T08:29:44;4.73;;;2.80;;
177;SDS011;77;48.792;9.032;2022-11-15T08:32:09;5.80;;;2.90;;
177;SDS011;77;48.792;9.032;2022-11-15T08:34:34;4.30;;;2.77;;
177;SDS011;77;48.792;9.032;2022-11-15T08:37:00;3.73;;;2.77;;
177;SDS011;77;48.792;9.032;2022-11-15T08:39:25;7.23;;;2.90;;
177;SDS011;77;48.792;9.032;2022-11-15T08:41:50;4.00;;;2.50;;
177;SDS011;77;48.792;9.032;2022-11-15T08:44:15;5.13;;;2.80;;
177;SDS011;77;48.792;9.032;2022-11-15T08:46:42;7.00;;;3.00;;
177;SDS011;77;48.792;9.032;2022-11-15T08:49:10;4.23;;;2.60;;
177;SDS011;77;48.792;9.032;2022-11-15T08:51:35;4.37;;;2.60;;
177;SDS011;77;48.792;9.032;2022-11-15T08:54:00;3.80;;;2.83;;
177;SDS011;77;48.792;9.032;2022-11-15T08:56:25;5.10;;;3.03;;
177;SDS011;77;48.792;9.032;2022-11-15T08:58:50;5.63;;;2.87;;
177;SDS011;77;48.792;9.032;2022-11-15T09:01:16;5.30;;;2.63;;
177;SDS011;77;48.792;9.032;2022-11-15T09:03:43;7.00;;;2.80;;
177;SDS011;77;48.792;9.032;2022-11-15T09:06:08;5.27;;;2.60;;
177;SDS011;77;48.792;9.032;2022-11-15T09:08:33;5.00;;;3.10;;
177;SDS011;77;48.792;9.032;2022-11-15T09:11:02;8.13;;;3.33;;
177;SDS011;77;48.792;9.032;2022-11-15T09:13:27;6.97;;;3.27;;
177;SDS011;77;48.792;9.032;2022-11-15T09:15:52;4.47;;;3.00;;
177;SDS011;77;48.792;9.032;2022-11-15T09:18:17;6.17;;;3.00;;
177;SDS011;77;48.792;9.032;2022-11-15T09:20:44;6.73;;;2.93;;
177;SDS011;77;48.792;9.032;2022-11-15T09:23:09;4.03;;;2.80;;
177;SDS011;77;48.792;9.032;2022-11-15T09:25:34;6.60;;;3.57;;
177;SDS011;77;48.792;9.032;2022-11-15T09:27:59;4.27;;;2.90;;
177;SDS011;77;48.792;9.032;2022-11-15T09:30:24;4.60;;;2.90;;
177;SDS011;77;48.792;9.032;2022-11-15T09:32:50;7.33;;;3.10;;
177;SDS011;77;48.792;9.032;2022-11-15T09:35:15;5.37;;;3.00;;
177;SDS011;77;48.792;9.032;2022-11-15T09:37:42;6.53;;;3.00;;
177;SDS011;77;48.792;9.032;2022-11-15T09:40:08;6.90;;;2.97;;
177;SDS011;77;48.792;9.032;2022-11-15T09:42:38;5.63;;;3.43;;
177;SDS011;77;48.792;9.032;2022-11-15T09:45:14;7.67;;;2.90;;
177;SDS011;77;48.792;9.032;2022-11-15T09:50:34;5.40;;;3.23;;
177;SDS011;77;48.792;9.032;2022-11-15T09:53:02;6.97;;;3.50;;
177;SDS011;77;48.792;9.032;2022-11-15T09:55:31;5.00;;;3.40;;
177;SDS011;77;48.792;9.032;2022-11-15T09:57:59;7.53;;;3.43;;
177;SDS011;77;48.792;9.032;2022-11-15T10:00:28;5.10;;;3.20;;
177;SDS011;77;48.792;9.032;2022-11-15T10:02:58;5.50;;;3.10;;
177;SDS011;77;48.792;9.032;2022-11-15T10:05:25;4.27;;;2.80;;
177;SDS011;77;48.792;9.032;2022-11-15T10:07:53;5.60;;;3.10;;
177;SDS011;77;48.792;9.032;2022-11-15T10:10:22;3.67;;;2.77;;
177;SDS011;77;48.792;9.032;2022-11-15T10:12:50;5.73;;;2.70;;
177;SDS011;77;48.792;9.032;2022-11-15T10:15:16;6.50;;;2.97;;
177;SDS011;77;48.792;9.032;2022-11-15T10:17:48;6.70;;;3.23;;
177;SDS011;77;48.792;9.032;2022-11-15T10:20:16;5.03;;;2.90;;
177;SDS011;77;48.792;9.032;2022-11-15T10:22:44;4.77;;;3.10;;
177;SDS011;77;48.792;9.032;2022-11-15T10:25:13;5.00;;;2.87;;
177;SDS011;77;48.792;9.032;2022-11-15T10:27:41;5.47;;;2.73;;
177;SDS011;77;48.792;9.032;2022-11-15T10:30:10;4.63;;;2.83;;
177;SDS011;77;48.792;9.032;2022-11-15T10:32:36;7.80;;;3.00;;
177;SDS011;77;48.792;9.032;2022-11-15T10:35:01;5.50;;;2.87;;
177;SDS011;77;48.792;9.032;2022-11-15T10:37:40;4.63;;;2.80;;
177;SDS011;77;48.792;9.032;2022-11-15T10:40:06;4.50;;;2.97;;
177;SDS011;77;48.792;9.032;2022-11-15T10:42:32;3.93;;;2.77;;
177;SDS011;77;48.792;9.032;2022-11-15T10:44:58;6.30;;;3.00;;
177;SDS011;77;48.792;9.032;2022-11-15T10:47:25;4.10;;;2.87;;
177;SDS011;77;48.792;9.032;2022-11-15T10:50:00;6.07;;;2.97;;
177;SDS011;77;48.792;9.032;2022-11-15T10:52:26;6.00;;;3.30;;
177;SDS011;77;48.792;9.032;2022-11-15T10:54:53;5.83;;;3.00;;
177;SDS011;77;48.792;9.032;2022-11-15T10:57:20;6.13;;;3.10;;
177;SDS011;77;48.792;9.032;2022-11-15T10:59:47;4.90;;;3.20;;
177;SDS011;77;48.792;9.032;2022-11-15T11:02:30;8.33;;;3.27;;
177;SDS011;77;48.792;9.032;2022-11-15T11:04:56;4.13;;;2.90;;
177;SDS011;77;48.792;9.032;2022-11-15T11:07:22;4.07;;;3.00;;
177;SDS011;77;48.792;9.032;2022-11-15T11:09:48;5.20;;;2.90;;
177;SDS011;77;48.792;9.032;2022-11-15T11:12:26;5.40;;;3.10;;
177;SDS011;77;48.792;9.032;2022-11-15T11:14:52;7.43;;;3.23;;
177;SDS011;77;48.792;9.032;2022-11-15T11:17:18;8.70;;;3.20;;
177;SDS011;77;48.792;9.032;2022-11-15T11:19:51;4.00;;;2.93;;
177;SDS011;77;48.792;9.032;2022-11-15T11:22:20;6.57;;;3.10;;
177;SDS011;77;48.792;9.032;2022-11-15T11:24:49;4.90;;;3.00;;
177;SDS011;77;48.792;9.032;2022-11-15T11:27:22;5.13;;;2.97;;
177;SDS011;77;48.792;9.032;2022-11-15T11:29:53;4.60;;;2.80;;
177;SDS011;77;48.792;9.032;2022-11-15T11:32:26;5.00;;;3.20;;
177;SDS011;77;48.792;9.032;2022-11-15T11:34:58;3.80;;;2.70;;
177;SDS011;77;48.792;9.032;2022-11-15T11:37:36;4.00;;;2.73;;
177;SDS011;77;48.792;9.032;2022-11-15T11:40:10;3.93;;;2.80;;
177;SDS011;77;48.792;9.032;2022-11-15T11:42:40;5.40;;;2.83;;
177;SDS011;77;48.792;9.032;2022-11-15T11:45:11;6.83;;;2.80;;
177;SDS011;77;48.792;9.032;2022-11-15T11:47:40;5.57;;;2.80;;
177;SDS011;77;48.792;9.032;2022-11-15T11:50:12;4.13;;;2.70;;
177;SDS011;77;48.792;9.032;2022-11-15T11:52:38;4.83;;;2.80;;
177;SDS011;77;48.792;9.032;2022-11-15T11:55:05;4.13;;;2.40;;
177;SDS011;77;48.792;9.032;2022-11-15T11:57:39;3.60;;;2.30;;
177;SDS011;77;48.792;9.032;2022-11-15T12:00:12;6.30;;;2.93;;
177;SDS011;77;48.792;9.032;2022-11-15T12:02:39;4.80;;;2.60;;
177;SDS011;77;48.792;9.032;2022-11-15T12:05:09;3.87;;;2.67;;
177;SDS011;77;48.792;9.032;2022-11-15T12:07:36;4.93;;;2.60;;
177;SDS011;77;48.792;9.032;2022-11-15T12:10:03;4.50;;;2.80;;
177;SDS011;77;48.792;9.032;2022-11-15T12:12:31;3.77;;;2.50;;
177;SDS011;77;48.792;9.032;2022-11-15T12:15:00;8.03;;;3.20;;
177;SDS011;77;48.792;9.032;2022-11-15T12:17:29;6.80;;;2.90;;
177;SDS011;77;48.792;9.032;2022-11-15T12:19:56;3.63;;;2.57;;
177;SDS011;77;48.792;9.032;2022-11-15T12:22:22;5.10;;;2.77;;
177;SDS011;77;48.792;9.032;2022-11-15T12:24:50;3.90;;;2.60;;
177;SDS011;77;48.792;9.032;2022-11-15T12:27:17;3.57;;;2.50;;
177;SDS011;77;48.792;9.032;2022-11-15T12:29:43;6.07;;;3.00;;
177;SDS011;77;48.792;9.032;2022-11-15T12:32:28;3.33;;;2.47;;
177;SDS011;77;48.792;9.032;2022-11-15T12:34:54;3.73;;;2.40;;
177;SDS011;77;48.792;9.032;2022-11-15T12:40:21;3.10;;;2.47;;
177;SDS011;77;48.792;9.032;2022-11-15T12:43:00;4.40;;;2.47;;
177;SDS011;77;48.792;9.032;2022-11-15T12:45:26;4.83;;;2.70;;
177;SDS011;77;48.792;9.032;2022-11-15T12:47:52;3.70;;;2.60;;
177;SDS011;77;48.792;9.032;2022-11-15T12:50:18;4.67;;;2.53;;
177;SDS011;77;48.792;9.032;2022-11-15T12:55:44;4.23;;;2.60;;
177;SDS011;77;48.792;9.032;2022-11-15T12:58:39;3.83;;;2.60;;
177;SDS011;77;48.792;9.032;2022-11-15T13:01:06;5.90;;;2.50;;
177;SDS011;77;48.792;9.032;2022-11-15T13:03:31;7.17;;;2.60;;
177;SDS011;77;48.792;9.032;2022-11-15T13:06:07;3.77;;;2.60;;
177;SDS011;77;48.792;9.032;2022-11-15T13:08:37;4.63;;;2.90;;
177;SDS011;77;48.792;9.032;2022-11-15T13:13:44;5.80;;;3.60;;
177;SDS011;77;48.792;9.032;2022-11-15T13:16:10;6.50;;;3.30;;
177;SDS011;77;48.792;9.032;2022-11-15T13:18:37;6.50;;;3.30;;
177;SDS011;77;48.792;9.032;2022-11-15T13:21:04;6.50;;;2.97;;
177;SDS011;77;48.792;9.032;2022-11-15T13:23:29;5.97;;;3.10;;
177;SDS011;77;48.792;9.032;2022-11-15T13:26:05;6.63;;;3.27;;
177;SDS011;77;48.792;9.032;2022-11-15T13:28:32;5.70;;;2.93;;
177;SDS011;77;48.792;9.032;2022-11-15T13:31:00;5.30;;;2.83;;
177;SDS011;77;48.792;9.032;2022-11-15T13:33:28;5.57;;;2.93;;
177;SDS011;77;48.792;9.032;2022-11-15T13:35:56;3.67;;;2.60;;
177;SDS011;77;48.792;9.032;2022-11-15T13:38:25;4.40;;;2.80;;
177;SDS011;77;48.792;9.032;2022-11-15T13:40:51;4.93;;;2.77;;
177;SDS011;77;48.792;9.032;2022-11-15T13:43:26;7.67;;;2.80;;
177;SDS011;77;48.792;9.032;2022-11-15T13:46:04;4.47;;;2.47;;
177;SDS011;77;48.792;9.032;2022-11-15T13:48:29;5.40;;;2.50;;
177;SDS011;77;48.792;9.032;2022-11-15T13:50:55;4.77;;;2.70;;
177;SDS011;77;48.792;9.032;2022-11-15T13:53:20;3.53;;;2.40;;
177;SDS011;77;48.792;9.032;2022-11-15T13:55:46;3.70;;;2.40;;
177;SDS011;77;48.792;9.032;2022-11-15T13:58:11;5.40;;;2.50;;
177;SDS011;77;48.792;9.032;2022-11-15T14:00:37;3.87;;;2.47;;
177;SDS011;77;48.792;9.032;2022-11-15T14:03:07;3.70;;;2.37;;
177;SDS011;77;48.792;9.032;2022-11-15T14:05:32;4.90;;;2.70;;
177;SDS011;77;48.792;9.032;2022-11-15T14:08:03;3.80;;;2.30;;
177;SDS011;77;48.792;9.032;2022-11-15T14:10:29;4.87;;;2.50;;
177;SDS011;77;48.792;9.032;2022-11-15T14:12:55;4.93;;;3.03;;
177;SDS011;77;48.792;9.032;2022-11-15T14:15:25;3.90;;;2.60;;
177;SDS011;77;48.792;9.032;2022-11-15T14:17:51;3.33;;;2.67;;
177;SDS011;77;48.792;9.032;2022-11-15T14:20:24;3.67;;;2.30;;
177;SDS011;77;48.792;9.032;2022-11-15T14:22:51;4.17;;;2.80;;
177;SDS011;77;48.792;9.032;2022-11-15T14:25:17;3.70;;;2.80;;
177;SDS011;77;48.792;9.032;2022-11-15T14:27:43;5.90;;;2.70;;
177;SDS011;77;48.792;9.032;2022-11-15T14:30:12;5.13;;;2.77;;
177;SDS011;77;48.792;9.032;2022-11-15T14:32:41;3.70;;;2.67;;
177;SDS011;77;48.792;9.032;2022-11-15T14:35:09;5.20;;;2.90;;
177;SDS011;77;48.792;9.032;2022-11-15T14:37:36;3.63;;;2.63;;
177;SDS011;77;48.792;9.032;2022-11-15T14:40:01;4.40;;;2.70;;
177;SDS011;77;48.792;9.032;2022-11-15T14:42:27;5.00;;;2.87;;
177;SDS011;77;48.792;9.032;2022-11-15T14:44:53;6.30;;;3.07;;
177;SDS011;77;48.792;9.032;2022-11-15T14:47:18;4.17;;;2.83;;
177;SDS011;77;48.792;9.032;2022-11-15T14:49:43;6.07;;;3.13;;
177;SDS011;77;48.792;9.032;2022-11-15T14:54:53;4.60;;;2.73;;
177;SDS011;77;48.792;9.032;2022-11-15T14:57:19;5.57;;;3.13;;
177;SDS011;77;48.792;9.032;2022-11-15T14:59:44;6.00;;;2.80;;
177;SDS011;77;48.792;9.032;2022-11-15T15:02:11;5.67;;;3.00;;
177;SDS011;77;48.792;9.032;2022-11-15T15:04:39;9.80;;;2.80;;
177;SDS011;77;48.792;9.032;2022-11-15T15:07:05;5.10;;;3.00;;
177;SDS011;77;48.792;9.032;2022-11-15T15:09:30;4.60;;;2.83;;
177;SDS011;77;48.792;9.032;2022-11-15T15:11:56;4.77;;;3.03;;
177;SDS011;77;48.792;9.032;2022-11-15T15:14:22;4.53;;;3.10;;
177;SDS011;77;48.792;9.032;2022-11-15T15:16:47;9.20;;;3.40;;
177;SDS011;77;48.792;9.032;2022-11-15T15:19:12;7.53;;;3.97;;
177;SDS011;77;48.792;9.032;2022-11-15T15:21:37;5.43;;;3.70;;
177;SDS011;77;48.792;9.032;2022-11-15T15:24:03;7.00;;;3.73;;
177;SDS011;77;48.792;9.032;2022-11-15T15:26:28;6.50;;;3.63;;
177;SDS011;77;48.792;9.032;2022-11-15T15:28:54;8.50;;;3.90;;
177;SDS011;77;48.792;9.032;2022-11-15T15:31:20;7.50;;;4.20;;
177;SDS011;77;48.792;9.032;2022-11-15T15:33:45;6.73;;;4.40;;
177;SDS011;77;48.792;9.032;2022-11-15T15:36:11;11.03;;;4.40;;
177;SDS011;77;48.792;9.032;2022-11-15T15:38:36;9.43;;;4.90;;
177;SDS011;77;48.792;9.032;2022-11-15T15:41:01;8.03;;;4.57;;
177;SDS011;77;48.792;9.032;2022-11-15T15:43:26;6.83;;;4.63;;
177;SDS011;77;48.792;9.032;2022-11-15T15:45:53;8.63;;;4.90;;
177;SDS011;77;48.792;9.032;2022-11-15T15:48:18;7.50;;;5.03;;
177;SDS011;77;48.792;9.032;2022-11-15T15:50:43;9.33;;;5.17;;
177;SDS011;77;48.792;9.032;2022-11-15T15:53:09;8.20;;;5.07;;
177;SDS011;77;48.792;9.032;2022-11-15T15:55:34;9.03;;;4.70;;
177;SDS011;77;48.792;9.032;2022-11-15T15:58:00;10.47;;;5.30;;
177;SDS011;77;48.792;9.032;2022-11-15T16:00:25;8.13;;;4.50;;
177;SDS011;77;48.792;9.032;2022-11-15T16:02:52;14.97;;;4.93;;
177;SDS011;77;48.792;9.032;2022-11-15T16:05:17;10.07;;;5.30;;
177;SDS011;77;48.792;9.032;2022-11-15T16:07:43;7.57;;;4.73;;
177;SDS011;77;48.792;9.032;2022-11-15T16:10:14;9.77;;;4.93;;
177;SDS011;77;48.792;9.032;2022-11-15T16:12:41;9.00;;;5.13;;
177;SDS011;77;48.792;9.032;2022-11-15T16:15:07;8.93;;;4.70;;